PWSweather.com
Personal Weather Stations
Station Observations
KMNGREYC2
Grey Cloud Island, Grey Cloud Island, MN 55071

Grey Cloud IslandGrey Cloud Island, MN 55071

Lat: 44.799333, Lon: -92.987851

Elevation: 700

Station Type: Davis VP2

www.jagielski.com/weather/conditions.htm

High Low Average
Temperature 20.8°F-6.2°C -5.4°F-20.8°C 8.9°F-12.8°C
Dew Point 17.2°F-8.2°C -13.7°F-25.4°C 1.3°F-17.1°C
Winds 13.0 mph 20.9 kmh Calm Calm 4.0 mph W6.4 kmh W
Wind Gusts 21.0 mph33.8 kmh -- 13.0 mph20.9 kmh
Humidity 87% 55% 71%
Pressure 30.23 in1023.7 mb 29.76 in1007.8 mb -
Precipitation 0.00 in0.0 mm - -
Hour Temp Dew Point Humidity Winds Wind Gusts Pressure Precip Precip Rate Daily Precip Total
12:00 AM 18.9°F-7.3°C 15.4°F-9.2°C 86% Calm Calm -- 29.77 in1008.1 mb 0.00 in0.0 mm 0.00 in0.0 mm 0.00 in0.0 mm
12:15 AM 18.9°F-7.3°C 15.2°F-9.3°C 85% Calm Calm -- 29.77 in1008.1 mb 0.00 in0.0 mm 0.00 in0.0 mm 0.00 in0.0 mm
12:30 AM 19.0°F-7.2°C 15.2°F-9.3°C 85% Calm Calm -- 29.76 in1007.8 mb 0.00 in0.0 mm 0.00 in0.0 mm 0.00 in0.0 mm
12:45 AM 19.1°F-7.2°C 15.3°F-9.3°C 85% Calm Calm -- 29.76 in1007.8 mb 0.00 in0.0 mm 0.00 in0.0 mm 0.00 in0.0 mm
01:00 AM 19.2°F-7.1°C 15.7°F-9.1°C 86% Calm Calm -- 29.76 in1007.8 mb 0.00 in0.0 mm 0.00 in0.0 mm 0.00 in0.0 mm
01:15 AM 19.2°F-7.1°C 15.7°F-9.1°C 86% Calm Calm -- 29.76 in1007.8 mb 0.00 in0.0 mm 0.00 in0.0 mm 0.00 in0.0 mm
01:30 AM 19.3°F-7.1°C 15.8°F-9.0°C 86% Calm Calm -- 29.76 in1007.8 mb 0.00 in0.0 mm 0.00 in0.0 mm 0.00 in0.0 mm
01:45 AM 19.3°F-7.1°C 15.8°F-9.0°C 86% Calm Calm 2.0 mph3.2 kmh 29.77 in1008.1 mb 0.00 in0.0 mm 0.00 in0.0 mm 0.00 in0.0 mm
02:00 AM 19.5°F-6.9°C 16.3°F-8.7°C 87% 3.0 mph WSW4.8 kmh WSW 5.0 mph8.0 kmh 29.77 in1008.1 mb 0.00 in0.0 mm 0.00 in0.0 mm 0.00 in0.0 mm
02:15 AM 19.9°F-6.7°C 16.7°F-8.5°C 87% 2.0 mph WSW3.2 kmh WSW 5.0 mph8.0 kmh 29.78 in1008.5 mb 0.00 in0.0 mm 0.00 in0.0 mm 0.00 in0.0 mm
02:30 AM 20.2°F-6.6°C 16.7°F-8.5°C 86% 1.0 mph W1.6 kmh W 6.0 mph9.7 kmh 29.78 in1008.5 mb 0.00 in0.0 mm 0.00 in0.0 mm 0.00 in0.0 mm
02:45 AM 20.4°F-6.4°C 16.9°F-8.4°C 86% 3.0 mph WNW4.8 kmh WNW 7.0 mph11.3 kmh 29.79 in1008.8 mb 0.00 in0.0 mm 0.00 in0.0 mm 0.00 in0.0 mm
03:00 AM 20.5°F-6.4°C 16.7°F-8.5°C 85% 4.0 mph WNW6.4 kmh WNW 7.0 mph11.3 kmh 29.79 in1008.8 mb 0.00 in0.0 mm 0.00 in0.0 mm 0.00 in0.0 mm
03:15 AM 20.7°F-6.3°C 16.9°F-8.4°C 85% 1.0 mph WNW1.6 kmh WNW 7.0 mph11.3 kmh 29.79 in1008.8 mb 0.00 in0.0 mm 0.00 in0.0 mm 0.00 in0.0 mm
03:30 AM 20.8°F-6.2°C 17.0°F-8.3°C 85% Calm Calm 9.0 mph14.5 kmh 29.79 in1008.8 mb 0.00 in0.0 mm 0.00 in0.0 mm 0.00 in0.0 mm
03:45 AM 20.7°F-6.3°C 17.2°F-8.2°C 86% 4.0 mph WNW6.4 kmh WNW 11.0 mph17.7 kmh 29.79 in1008.8 mb 0.00 in0.0 mm 0.00 in0.0 mm 0.00 in0.0 mm
04:00 AM 20.4°F-6.4°C 16.9°F-8.4°C 86% 4.0 mph W6.4 kmh W 12.0 mph19.3 kmh 29.80 in1009.1 mb 0.00 in0.0 mm 0.00 in0.0 mm 0.00 in0.0 mm
04:15 AM 20.2°F-6.6°C 16.7°F-8.5°C 86% 3.0 mph WNW4.8 kmh WNW 6.0 mph9.7 kmh 29.81 in1009.5 mb 0.00 in0.0 mm 0.00 in0.0 mm 0.00 in0.0 mm
04:30 AM 20.0°F-6.7°C 16.5°F-8.6°C 86% 1.0 mph WNW1.6 kmh WNW 9.0 mph14.5 kmh 29.81 in1009.5 mb 0.00 in0.0 mm 0.00 in0.0 mm 0.00 in0.0 mm
04:45 AM 19.8°F-6.8°C 16.6°F-8.6°C 87% 7.0 mph WNW11.3 kmh WNW 12.0 mph19.3 kmh 29.81 in1009.5 mb 0.00 in0.0 mm 0.00 in0.0 mm 0.00 in0.0 mm
05:00 AM 19.6°F-6.9°C 16.1°F-8.8°C 86% 2.0 mph NW3.2 kmh NW 12.0 mph19.3 kmh 29.82 in1009.8 mb 0.00 in0.0 mm 0.00 in0.0 mm 0.00 in0.0 mm
05:15 AM 19.3°F-7.1°C 15.8°F-9.0°C 86% 3.0 mph WNW4.8 kmh WNW 11.0 mph17.7 kmh 29.83 in1010.2 mb 0.00 in0.0 mm 0.00 in0.0 mm 0.00 in0.0 mm
05:30 AM 19.0°F-7.2°C 15.5°F-9.2°C 86% 3.0 mph WNW4.8 kmh WNW 12.0 mph19.3 kmh 29.83 in1010.2 mb 0.00 in0.0 mm 0.00 in0.0 mm 0.00 in0.0 mm
05:45 AM 18.5°F-7.5°C 14.8°F-9.6°C 85% 5.0 mph W8.0 kmh W 16.0 mph25.7 kmh 29.84 in1010.5 mb 0.00 in0.0 mm 0.00 in0.0 mm 0.00 in0.0 mm
06:00 AM 18.1°F-7.7°C 14.4°F-9.8°C 85% 6.0 mph NW9.7 kmh NW 16.0 mph25.7 kmh 29.84 in1010.5 mb 0.00 in0.0 mm 0.00 in0.0 mm 0.00 in0.0 mm
06:15 AM 17.9°F-7.8°C 14.2°F-9.9°C 85% 3.0 mph W4.8 kmh W 10.0 mph16.1 kmh 29.85 in1010.8 mb 0.00 in0.0 mm 0.00 in0.0 mm 0.00 in0.0 mm
06:30 AM 17.4°F-8.1°C 13.4°F-10.3°C 84% 5.0 mph WNW8.0 kmh WNW 12.0 mph19.3 kmh 29.87 in1011.5 mb 0.00 in0.0 mm 0.00 in0.0 mm 0.00 in0.0 mm
06:45 AM 17.1°F-8.3°C 12.8°F-10.7°C 83% 2.0 mph W3.2 kmh W 14.0 mph22.5 kmh 29.87 in1011.5 mb 0.00 in0.0 mm 0.00 in0.0 mm 0.00 in0.0 mm
07:00 AM 16.9°F-8.4°C 12.6°F-10.8°C 83% 4.0 mph NW6.4 kmh NW 14.0 mph22.5 kmh 29.88 in1011.9 mb 0.00 in0.0 mm 0.00 in0.0 mm 0.00 in0.0 mm
07:15 AM 16.6°F-8.6°C 12.9°F-10.6°C 85% 6.0 mph WNW9.7 kmh WNW 15.0 mph24.1 kmh 29.89 in1012.2 mb 0.00 in0.0 mm 0.00 in0.0 mm 0.00 in0.0 mm
07:30 AM 15.9°F-8.9°C 12.2°F-11.0°C 85% 4.0 mph WNW6.4 kmh WNW 15.0 mph24.1 kmh 29.90 in1012.5 mb 0.00 in0.0 mm 0.00 in0.0 mm 0.00 in0.0 mm
07:45 AM 15.0°F-9.4°C 10.2°F-12.1°C 81% 4.0 mph W6.4 kmh W 18.0 mph29.0 kmh 29.91 in1012.9 mb 0.00 in0.0 mm 0.00 in0.0 mm 0.00 in0.0 mm
08:00 AM 14.3°F-9.8°C 9.6°F-12.4°C 81% 13.0 mph WNW20.9 kmh WNW 18.0 mph29.0 kmh 29.92 in1013.2 mb 0.00 in0.0 mm 0.00 in0.0 mm 0.00 in0.0 mm
08:15 AM 13.2°F-10.4°C 8.5°F-13.1°C 81% 9.0 mph WNW14.5 kmh WNW 14.0 mph22.5 kmh 29.93 in1013.5 mb 0.00 in0.0 mm 0.00 in0.0 mm 0.00 in0.0 mm
08:30 AM 12.3°F-10.9°C 7.0°F-13.9°C 79% 1.0 mph NNE1.6 kmh NNE 15.0 mph24.1 kmh 29.95 in1014.2 mb 0.00 in0.0 mm 0.00 in0.0 mm 0.00 in0.0 mm
08:45 AM 11.4°F-11.4°C 5.9°F-14.5°C 78% 4.0 mph W6.4 kmh W 12.0 mph19.3 kmh 29.96 in1014.6 mb 0.00 in0.0 mm 0.00 in0.0 mm 0.00 in0.0 mm
09:00 AM 10.4°F-12.0°C 4.4°F-15.3°C 76% 3.0 mph NNE4.8 kmh NNE 16.0 mph25.7 kmh 29.98 in1015.2 mb 0.00 in0.0 mm 0.00 in0.0 mm 0.00 in0.0 mm
09:15 AM 9.8°F-12.3°C 3.5°F-15.8°C 75% 6.0 mph WNW9.7 kmh WNW 18.0 mph29.0 kmh 29.99 in1015.6 mb 0.00 in0.0 mm 0.00 in0.0 mm 0.00 in0.0 mm
09:30 AM 9.1°F-12.7°C 2.5°F-16.4°C 74% 5.0 mph WSW8.0 kmh WSW 18.0 mph29.0 kmh 30.01 in1016.3 mb 0.00 in0.0 mm 0.00 in0.0 mm 0.00 in0.0 mm
09:45 AM 8.5°F-13.1°C 1.9°F-16.7°C 74% 7.0 mph WNW11.3 kmh WNW 12.0 mph19.3 kmh 30.01 in1016.3 mb 0.00 in0.0 mm 0.00 in0.0 mm 0.00 in0.0 mm
10:00 AM 7.6°F-13.6°C 0.5°F-17.5°C 72% 5.0 mph W8.0 kmh W 21.0 mph33.8 kmh 30.03 in1016.9 mb 0.00 in0.0 mm 0.00 in0.0 mm 0.00 in0.0 mm
10:15 AM 7.2°F-13.8°C -0.2°F-17.9°C 71% 4.0 mph W6.4 kmh W 20.0 mph32.2 kmh 30.03 in1016.9 mb 0.00 in0.0 mm 0.00 in0.0 mm 0.00 in0.0 mm
10:30 AM 6.8°F-14.0°C 0.3°F-17.6°C 74% 4.0 mph WNW6.4 kmh WNW 20.0 mph32.2 kmh 30.05 in1017.6 mb 0.00 in0.0 mm 0.00 in0.0 mm 0.00 in0.0 mm
10:45 AM 7.1°F-13.8°C -0.6°F-18.1°C 70% 12.0 mph WNW19.3 kmh WNW 19.0 mph30.6 kmh 30.05 in1017.6 mb 0.00 in0.0 mm 0.00 in0.0 mm 0.00 in0.0 mm
11:00 AM 7.1°F-13.8°C -1.2°F-18.4°C 68% 2.0 mph NNW3.2 kmh NNW 20.0 mph32.2 kmh 30.06 in1017.9 mb 0.00 in0.0 mm 0.00 in0.0 mm 0.00 in0.0 mm
11:15 AM 7.0°F-13.9°C -1.6°F-18.7°C 67% 6.0 mph N9.7 kmh N 16.0 mph25.7 kmh 30.06 in1017.9 mb 0.00 in0.0 mm 0.00 in0.0 mm 0.00 in0.0 mm
11:30 AM 6.8°F-14.0°C -2.1°F-18.9°C 66% 3.0 mph WNW4.8 kmh WNW 21.0 mph33.8 kmh 30.06 in1017.9 mb 0.00 in0.0 mm 0.00 in0.0 mm 0.00 in0.0 mm
11:45 AM 7.2°F-13.8°C -1.4°F-18.6°C 67% 3.0 mph NW4.8 kmh NW 15.0 mph24.1 kmh 30.06 in1017.9 mb 0.00 in0.0 mm 0.00 in0.0 mm 0.00 in0.0 mm
12:00 PM 7.4°F-13.7°C -1.9°F-18.8°C 65% 3.0 mph NNW4.8 kmh NNW 17.0 mph27.4 kmh 30.06 in1017.9 mb 0.00 in0.0 mm 0.00 in0.0 mm 0.00 in0.0 mm
12:15 PM 7.3°F-13.7°C -2.0°F-18.9°C 65% 5.0 mph NNW8.0 kmh NNW 18.0 mph29.0 kmh 30.06 in1017.9 mb 0.00 in0.0 mm 0.00 in0.0 mm 0.00 in0.0 mm
12:30 PM 7.5°F-13.6°C -1.5°F-18.6°C 66% 4.0 mph N6.4 kmh N 18.0 mph29.0 kmh 30.06 in1017.9 mb 0.00 in0.0 mm 0.00 in0.0 mm 0.00 in0.0 mm
12:45 PM 7.5°F-13.6°C -1.8°F-18.8°C 65% 7.0 mph WNW11.3 kmh WNW 18.0 mph29.0 kmh 30.07 in1018.3 mb 0.00 in0.0 mm 0.00 in0.0 mm 0.00 in0.0 mm
01:00 PM 7.7°F-13.5°C -1.9°F-18.8°C 64% 6.0 mph W9.7 kmh W 18.0 mph29.0 kmh 30.06 in1017.9 mb 0.00 in0.0 mm 0.00 in0.0 mm 0.00 in0.0 mm
01:15 PM 7.8°F-13.4°C -1.8°F-18.8°C 64% 12.0 mph W19.3 kmh W 16.0 mph25.7 kmh 30.06 in1017.9 mb 0.00 in0.0 mm 0.00 in0.0 mm 0.00 in0.0 mm
01:30 PM 7.7°F-13.5°C -2.3°F-19.1°C 63% 10.0 mph WNW16.1 kmh WNW 16.0 mph25.7 kmh 30.07 in1018.3 mb 0.00 in0.0 mm 0.00 in0.0 mm 0.00 in0.0 mm
01:45 PM 7.6°F-13.6°C -2.0°F-18.9°C 64% 2.0 mph WNW3.2 kmh WNW 13.0 mph20.9 kmh 30.08 in1018.6 mb 0.00 in0.0 mm 0.00 in0.0 mm 0.00 in0.0 mm
02:00 PM 8.0°F-13.3°C -2.0°F-18.9°C 63% 5.0 mph W8.0 kmh W 14.0 mph22.5 kmh 30.07 in1018.3 mb 0.00 in0.0 mm 0.00 in0.0 mm 0.00 in0.0 mm
02:15 PM 8.3°F-13.2°C -2.4°F-19.1°C 61% 7.0 mph W11.3 kmh W 14.0 mph22.5 kmh 30.08 in1018.6 mb 0.00 in0.0 mm 0.00 in0.0 mm 0.00 in0.0 mm
02:30 PM 8.8°F-12.9°C -3.0°F-19.4°C 58% 13.0 mph WNW20.9 kmh WNW 19.0 mph30.6 kmh 30.08 in1018.6 mb 0.00 in0.0 mm 0.00 in0.0 mm 0.00 in0.0 mm
02:45 PM 8.8°F-12.9°C -3.0°F-19.4°C 58% 4.0 mph NNW6.4 kmh NNW 17.0 mph27.4 kmh 30.08 in1018.6 mb 0.00 in0.0 mm 0.00 in0.0 mm 0.00 in0.0 mm
03:00 PM 9.1°F-12.7°C -3.8°F-19.9°C 55% 6.0 mph NW9.7 kmh NW 17.0 mph27.4 kmh 30.08 in1018.6 mb 0.00 in0.0 mm 0.00 in0.0 mm 0.00 in0.0 mm
03:15 PM 8.1°F-13.3°C -4.7°F-20.4°C 55% 1.0 mph NW1.6 kmh NW 15.0 mph24.1 kmh 30.09 in1019.0 mb 0.00 in0.0 mm 0.00 in0.0 mm 0.00 in0.0 mm
03:30 PM 7.3°F-13.7°C -5.5°F-20.8°C 55% 3.0 mph NW4.8 kmh NW 17.0 mph27.4 kmh 30.09 in1019.0 mb 0.00 in0.0 mm 0.00 in0.0 mm 0.00 in0.0 mm
03:45 PM 6.4°F-14.2°C -6.3°F-21.3°C 55% 5.0 mph SW8.0 kmh SW 16.0 mph25.7 kmh 30.10 in1019.3 mb 0.00 in0.0 mm 0.00 in0.0 mm 0.00 in0.0 mm
04:00 PM 5.6°F-14.7°C -7.1°F-21.7°C 55% 8.0 mph WNW12.9 kmh WNW 18.0 mph29.0 kmh 30.10 in1019.3 mb 0.00 in0.0 mm 0.00 in0.0 mm 0.00 in0.0 mm
04:15 PM 5.0°F-15.0°C -7.3°F-21.8°C 56% 7.0 mph W11.3 kmh W 15.0 mph24.1 kmh 30.11 in1019.6 mb 0.00 in0.0 mm 0.00 in0.0 mm 0.00 in0.0 mm
04:30 PM 4.4°F-15.3°C -7.8°F-22.1°C 56% 5.0 mph NW8.0 kmh NW 18.0 mph29.0 kmh 30.11 in1019.6 mb 0.00 in0.0 mm 0.00 in0.0 mm 0.00 in0.0 mm
04:45 PM 3.8°F-15.7°C -8.4°F-22.4°C 56% 3.0 mph N4.8 kmh N 13.0 mph20.9 kmh 30.12 in1020.0 mb 0.00 in0.0 mm 0.00 in0.0 mm 0.00 in0.0 mm
05:00 PM 3.3°F-15.9°C -8.5°F-22.5°C 57% 5.0 mph NNW8.0 kmh NNW 15.0 mph24.1 kmh 30.13 in1020.3 mb 0.00 in0.0 mm 0.00 in0.0 mm 0.00 in0.0 mm
05:15 PM 2.8°F-16.2°C -8.6°F-22.6°C 58% 2.0 mph NW3.2 kmh NW 16.0 mph25.7 kmh 30.15 in1021.0 mb 0.00 in0.0 mm 0.00 in0.0 mm 0.00 in0.0 mm
05:30 PM 2.5°F-16.4°C -8.2°F-22.3°C 60% 7.0 mph NW11.3 kmh NW 16.0 mph25.7 kmh 30.15 in1021.0 mb 0.00 in0.0 mm 0.00 in0.0 mm 0.00 in0.0 mm
05:45 PM 2.0°F-16.7°C -9.0°F-22.8°C 59% 9.0 mph W14.5 kmh W 12.0 mph19.3 kmh 30.16 in1021.3 mb 0.00 in0.0 mm 0.00 in0.0 mm 0.00 in0.0 mm
06:00 PM 1.6°F-16.9°C -9.1°F-22.8°C 60% 3.0 mph WNW4.8 kmh WNW 14.0 mph22.5 kmh 30.16 in1021.3 mb 0.00 in0.0 mm 0.00 in0.0 mm 0.00 in0.0 mm
06:15 PM 1.3°F-17.1°C -9.3°F-22.9°C 60% 5.0 mph W8.0 kmh W 11.0 mph17.7 kmh 30.17 in1021.7 mb 0.00 in0.0 mm 0.00 in0.0 mm 0.00 in0.0 mm
06:30 PM 0.9°F-17.3°C -10.1°F-23.4°C 59% Calm Calm 11.0 mph17.7 kmh 30.18 in1022.0 mb 0.00 in0.0 mm 0.00 in0.0 mm 0.00 in0.0 mm
06:45 PM 0.6°F-17.4°C -10.0°F-23.3°C 60% 2.0 mph W3.2 kmh W 8.0 mph12.9 kmh 30.18 in1022.0 mb 0.00 in0.0 mm 0.00 in0.0 mm 0.00 in0.0 mm
07:00 PM 0.2°F-17.7°C -10.4°F-23.6°C 60% 13.0 mph WNW20.9 kmh WNW 13.0 mph20.9 kmh 30.18 in1022.0 mb 0.00 in0.0 mm 0.00 in0.0 mm 0.00 in0.0 mm
07:15 PM -0.2°F-17.9°C -10.8°F-23.8°C 60% 1.0 mph WNW1.6 kmh WNW 9.0 mph14.5 kmh 30.19 in1022.4 mb 0.00 in0.0 mm 0.00 in0.0 mm 0.00 in0.0 mm
07:30 PM -0.6°F-18.1°C -11.1°F-23.9°C 60% 3.0 mph W4.8 kmh W 12.0 mph19.3 kmh 30.19 in1022.4 mb 0.00 in0.0 mm 0.00 in0.0 mm 0.00 in0.0 mm
07:45 PM -0.9°F-18.3°C -11.1°F-23.9°C 61% 3.0 mph WNW4.8 kmh WNW 11.0 mph17.7 kmh 30.20 in1022.7 mb 0.00 in0.0 mm 0.00 in0.0 mm 0.00 in0.0 mm
08:00 PM -1.3°F-18.5°C -11.8°F-24.3°C 60% 2.0 mph WNW3.2 kmh WNW 13.0 mph20.9 kmh 30.21 in1023.0 mb 0.00 in0.0 mm 0.00 in0.0 mm 0.00 in0.0 mm
08:15 PM -1.7°F-18.7°C -12.2°F-24.6°C 60% 3.0 mph WNW4.8 kmh WNW 15.0 mph24.1 kmh 30.21 in1023.0 mb 0.00 in0.0 mm 0.00 in0.0 mm 0.00 in0.0 mm
08:30 PM -2.0°F-18.9°C -12.1°F-24.5°C 61% 3.0 mph WSW4.8 kmh WSW 15.0 mph24.1 kmh 30.22 in1023.4 mb 0.00 in0.0 mm 0.00 in0.0 mm 0.00 in0.0 mm
08:45 PM -2.3°F-19.1°C -12.4°F-24.7°C 61% 3.0 mph NNE4.8 kmh NNE 14.0 mph22.5 kmh 30.22 in1023.4 mb 0.00 in0.0 mm 0.00 in0.0 mm 0.00 in0.0 mm
09:00 PM -2.7°F-19.3°C -12.5°F-24.7°C 62% 3.0 mph NW4.8 kmh NW 14.0 mph22.5 kmh 30.22 in1023.4 mb 0.00 in0.0 mm 0.00 in0.0 mm 0.00 in0.0 mm
09:15 PM -3.0°F-19.4°C -12.8°F-24.9°C 62% 6.0 mph NW9.7 kmh NW 12.0 mph19.3 kmh 30.22 in1023.4 mb 0.00 in0.0 mm 0.00 in0.0 mm 0.00 in0.0 mm
09:30 PM -3.2°F-19.6°C -12.6°F-24.8°C 63% 2.0 mph WNW3.2 kmh WNW 13.0 mph20.9 kmh 30.22 in1023.4 mb 0.00 in0.0 mm 0.00 in0.0 mm 0.00 in0.0 mm
09:45 PM -3.5°F-19.7°C -12.9°F-24.9°C 63% 3.0 mph WNW4.8 kmh WNW 11.0 mph17.7 kmh 30.22 in1023.4 mb 0.00 in0.0 mm 0.00 in0.0 mm 0.00 in0.0 mm
10:00 PM -3.7°F-19.8°C -13.1°F-25.1°C 63% 2.0 mph NW3.2 kmh NW 11.0 mph17.7 kmh 30.23 in1023.7 mb 0.00 in0.0 mm 0.00 in0.0 mm 0.00 in0.0 mm
10:15 PM -4.0°F-20.0°C -13.4°F-25.2°C 63% 4.0 mph NW6.4 kmh NW 10.0 mph16.1 kmh 30.22 in1023.4 mb 0.00 in0.0 mm 0.00 in0.0 mm 0.00 in0.0 mm
10:30 PM -4.3°F-20.2°C -13.4°F-25.2°C 64% 2.0 mph WNW3.2 kmh WNW 10.0 mph16.1 kmh 30.21 in1023.0 mb 0.00 in0.0 mm 0.00 in0.0 mm 0.00 in0.0 mm
10:45 PM -4.5°F-20.3°C -13.6°F-25.3°C 64% 3.0 mph W4.8 kmh W 10.0 mph16.1 kmh 30.22 in1023.4 mb 0.00 in0.0 mm 0.00 in0.0 mm 0.00 in0.0 mm
11:00 PM -4.8°F-20.4°C -13.6°F-25.3°C 65% 9.0 mph WNW14.5 kmh WNW 12.0 mph19.3 kmh 30.22 in1023.4 mb 0.00 in0.0 mm 0.00 in0.0 mm 0.00 in0.0 mm
11:15 PM -5.0°F-20.6°C -13.7°F-25.4°C 65% 1.0 mph WNW1.6 kmh WNW 10.0 mph16.1 kmh 30.22 in1023.4 mb 0.00 in0.0 mm 0.00 in0.0 mm 0.00 in0.0 mm
11:30 PM -5.2°F-20.7°C -13.6°F-25.3°C 66% 1.0 mph WNW1.6 kmh WNW 10.0 mph16.1 kmh 30.22 in1023.4 mb 0.00 in0.0 mm 0.00 in0.0 mm 0.00 in0.0 mm
11:45 PM -5.4°F-20.8°C -13.5°F-25.3°C 67% 2.0 mph WNW3.2 kmh WNW 8.0 mph12.9 kmh 30.22 in1023.4 mb 0.00 in0.0 mm 0.00 in0.0 mm 0.00 in0.0 mm